createdAt,value
2023-01-04T00:00:52.467Z,92.97
2023-01-04T00:01:52.370Z,92.77
2023-01-04T00:02:52.564Z,92.81
2023-01-04T00:03:52.556Z,92.91
2023-01-04T00:04:52.348Z,93.02
2023-01-04T00:05:52.340Z,93.12
2023-01-04T00:06:52.320Z,93.23
2023-01-04T00:07:52.305Z,93.23
2023-01-04T00:08:52.499Z,93.33
2023-01-04T00:09:52.370Z,93.33
2023-01-04T00:10:52.287Z,93.43
2023-01-04T00:11:52.327Z,93.54
2023-01-04T00:12:52.247Z,93.54
2023-01-04T00:13:52.264Z,93.54
2023-01-04T00:14:52.723Z,93.54
2023-01-04T00:15:52.277Z,93.43
2023-01-04T00:16:52.423Z,93.43
2023-01-04T00:17:52.188Z,93.54
2023-01-04T00:18:52.218Z,93.54
2023-01-04T00:19:52.249Z,93.54
2023-01-04T00:20:52.177Z,93.64
2023-01-04T00:21:52.160Z,93.64
2023-01-04T00:22:52.153Z,93.54
2023-01-04T00:23:52.121Z,93.43
2023-01-04T00:24:52.071Z,93.43
2023-01-04T00:25:52.184Z,93.54
2023-01-04T00:26:52.162Z,93.54
2023-01-04T00:27:52.069Z,93.64
2023-01-04T00:28:54.571Z,93.64
2023-01-04T00:29:52.093Z,93.74
2023-01-04T00:30:52.067Z,93.74
2023-01-04T00:31:52.233Z,93.85
2023-01-04T00:32:51.979Z,93.85
2023-01-04T00:33:52.672Z,93.85
2023-01-04T00:34:51.980Z,93.85
2023-01-04T00:35:51.950Z,93.85
2023-01-04T00:36:51.955Z,93.74
2023-01-04T00:37:52.382Z,93.70
2023-01-04T00:38:51.917Z,93.60
2023-01-04T00:39:51.950Z,93.60
2023-01-04T00:40:52.499Z,93.60
2023-01-04T00:42:00.997Z,93.49
2023-01-04T00:42:52.852Z,93.39
2023-01-04T00:43:51.882Z,93.39
2023-01-04T00:44:51.992Z,93.39
2023-01-04T00:45:52.120Z,93.29
2023-01-04T00:46:51.995Z,93.18
2023-01-04T00:47:51.920Z,93.08
2023-01-04T00:48:53.991Z,93.18
2023-01-04T00:49:52.782Z,93.18
2023-01-04T00:50:51.823Z,93.18
2023-01-04T00:51:51.755Z,93.08
2023-01-04T00:52:51.799Z,93.08
2023-01-04T00:53:51.759Z,93.18
2023-01-04T00:54:51.796Z,93.18
2023-01-04T00:55:51.725Z,93.18
2023-01-04T00:56:51.770Z,93.29
2023-01-04T00:57:51.688Z,93.18
2023-01-04T00:58:51.690Z,93.18
2023-01-04T00:59:51.618Z,93.18
2023-01-04T01:00:51.642Z,93.23
2023-01-04T01:01:52.063Z,93.33
2023-01-04T01:02:51.984Z,93.33
2023-01-04T01:03:51.754Z,93.23
2023-01-04T01:04:51.633Z,93.23
2023-01-04T01:05:51.552Z,93.23
2023-01-04T01:06:51.536Z,93.43
2023-01-04T01:07:51.580Z,93.54
2023-01-04T01:08:51.555Z,93.54
2023-01-04T01:09:51.472Z,93.54
2023-01-04T01:10:51.468Z,93.54
2023-01-04T01:11:51.457Z,93.54
2023-01-04T01:12:51.467Z,93.54
2023-01-04T01:13:51.441Z,93.54
2023-01-04T01:14:53.753Z,93.54
2023-01-04T01:15:52.504Z,93.64
2023-01-04T01:16:57.041Z,93.64
2023-01-04T01:17:52.446Z,93.74
2023-01-04T01:18:51.366Z,93.85
2023-01-04T01:19:51.358Z,93.74
2023-01-04T01:20:51.346Z,93.74
2023-01-04T01:21:51.318Z,93.64
2023-01-04T01:22:51.327Z,93.54
2023-01-04T01:23:51.291Z,93.43
2023-01-04T01:24:51.284Z,93.43
2023-01-04T01:25:51.281Z,93.43
2023-01-04T01:26:51.258Z,93.33
2023-01-04T01:27:51.258Z,93.43
2023-01-04T01:28:51.226Z,93.54
2023-01-04T01:29:51.208Z,93.64
2023-01-04T01:30:51.244Z,93.64
2023-01-04T01:31:51.298Z,93.64
2023-01-04T01:32:51.190Z,93.74
2023-01-04T01:33:51.158Z,93.74
2023-01-04T01:34:51.243Z,93.74
2023-01-04T01:35:51.127Z,93.74
2023-01-04T01:36:51.123Z,93.64
2023-01-04T01:37:51.127Z,93.64
2023-01-04T01:38:51.098Z,93.54
2023-01-04T01:39:51.078Z,93.74
2023-01-04T01:40:51.069Z,93.85
2023-01-04T01:41:51.057Z,94.06
2023-01-04T01:42:51.068Z,94.26
2023-01-04T01:43:51.017Z,94.26
2023-01-04T01:44:51.043Z,94.26
2023-01-04T01:45:51.006Z,94.26
2023-01-04T01:46:51.091Z,94.37
2023-01-04T01:47:50.987Z,94.53
2023-01-04T01:48:50.960Z,94.63
2023-01-04T01:49:50.975Z,94.53
2023-01-04T01:50:50.950Z,94.43
2023-01-04T01:51:50.918Z,94.43
2023-01-04T01:52:50.930Z,94.32
2023-01-04T01:53:50.906Z,94.32
2023-01-04T01:54:51.000Z,94.22
2023-01-04T01:55:50.868Z,94.12
2023-01-04T01:56:50.870Z,94.01
2023-01-04T01:57:50.861Z,94.01
2023-01-04T01:58:50.828Z,94.01
2023-01-04T01:59:50.959Z,93.91
2023-01-04T02:00:50.798Z,93.91
2023-01-04T02:01:50.990Z,93.91
2023-01-04T02:02:51.024Z,93.97
2023-01-04T02:03:50.803Z,93.91
2023-01-04T02:04:50.763Z,93.91
2023-01-04T02:05:50.746Z,94.01
2023-01-04T02:06:50.727Z,94.01
2023-01-04T02:07:50.723Z,94.01
2023-01-04T02:08:50.728Z,94.01
2023-01-04T02:09:50.730Z,94.01
2023-01-04T02:10:50.682Z,94.07
2023-01-04T02:11:50.677Z,94.12
2023-01-04T02:12:50.763Z,94.12
2023-01-04T02:13:50.667Z,94.12
2023-01-04T02:14:50.633Z,93.97
2023-01-04T02:15:50.648Z,94.07
2023-01-04T02:16:50.600Z,94.18
2023-01-04T02:17:50.585Z,94.18
2023-01-04T02:18:50.593Z,94.18
2023-01-04T02:19:50.573Z,94.07
2023-01-04T02:20:50.571Z,94.07
2023-01-04T02:21:50.528Z,94.07
2023-01-04T02:22:50.523Z,94.07
2023-01-04T02:23:50.528Z,94.18
2023-01-04T02:24:50.501Z,94.18
2023-01-04T02:25:50.470Z,94.18
2023-01-04T02:26:50.492Z,94.18
2023-01-04T02:27:50.456Z,94.18
2023-01-04T02:28:50.478Z,94.28
2023-01-04T02:29:50.449Z,94.28
2023-01-04T02:30:50.479Z,94.38
2023-01-04T02:31:50.530Z,94.48
2023-01-04T02:32:50.399Z,94.69
2023-01-04T02:33:50.388Z,94.79
2023-01-04T02:34:56.452Z,94.79
2023-01-04T02:35:51.367Z,94.90
2023-01-04T02:36:50.328Z,94.79
2023-01-04T02:37:50.322Z,94.69
2023-01-04T02:38:50.339Z,94.69
2023-01-04T02:39:50.298Z,94.79
2023-01-04T02:40:50.299Z,94.90
2023-01-04T02:41:50.289Z,94.90
2023-01-04T02:42:50.268Z,94.90
2023-01-04T02:43:50.245Z,95.00
2023-01-04T02:44:50.245Z,95.00
2023-01-04T02:45:50.224Z,95.00
2023-01-04T02:46:50.321Z,95.00
2023-01-04T02:47:50.220Z,95.00
2023-01-04T02:48:50.198Z,95.21
2023-01-04T02:49:50.178Z,95.21
2023-01-04T02:50:50.151Z,95.31
2023-01-04T02:51:50.142Z,95.21
2023-01-04T02:52:50.128Z,95.31
2023-01-04T02:53:50.174Z,95.31
2023-01-04T02:54:50.097Z,95.42
2023-01-04T02:55:50.079Z,95.42
2023-01-04T02:56:50.070Z,95.42
2023-01-04T02:57:50.074Z,95.52
2023-01-04T02:58:50.073Z,95.62
2023-01-04T02:59:50.062Z,95.73
2023-01-04T03:00:50.013Z,95.73
2023-01-04T03:01:50.203Z,95.83
2023-01-04T03:02:50.158Z,95.73
2023-01-04T03:03:50.076Z,95.78
2023-01-04T03:04:49.979Z,95.78
2023-01-04T03:05:49.948Z,95.78
2023-01-04T03:06:49.936Z,95.78
2023-01-04T03:07:49.942Z,95.68
2023-01-04T03:08:49.932Z,95.68
2023-01-04T03:09:49.909Z,95.78
2023-01-04T03:10:49.887Z,95.78
2023-01-04T03:11:49.859Z,95.89
2023-01-04T03:12:49.868Z,95.89
2023-01-04T03:13:49.850Z,95.99
2023-01-04T03:14:49.817Z,95.99
2023-01-04T03:15:49.845Z,95.99
2023-01-04T03:16:49.811Z,95.89
2023-01-04T03:17:49.787Z,95.78
2023-01-04T03:18:49.797Z,95.68
2023-01-04T03:19:49.783Z,95.68
2023-01-04T03:20:49.778Z,95.68
2023-01-04T03:21:49.738Z,95.78
2023-01-04T03:22:49.728Z,95.68
2023-01-04T03:23:49.698Z,95.68
2023-01-04T03:24:49.718Z,95.74
2023-01-04T03:25:49.696Z,95.64
2023-01-04T03:26:49.679Z,95.53
2023-01-04T03:27:49.664Z,95.43
2023-01-04T03:28:49.693Z,95.43
2023-01-04T03:29:49.671Z,95.32
2023-01-04T03:30:49.626Z,95.22
2023-01-04T03:31:49.632Z,95.02
2023-01-04T03:32:49.600Z,94.92
2023-01-04T03:33:49.576Z,94.71
2023-01-04T03:34:49.589Z,94.60
2023-01-04T03:35:49.554Z,94.60
2023-01-04T03:36:49.557Z,94.50
2023-01-04T03:37:49.527Z,94.50
2023-01-04T03:38:49.516Z,94.50
2023-01-04T03:39:49.527Z,94.50
2023-01-04T03:40:49.494Z,94.46
2023-01-04T03:41:49.476Z,94.35
2023-01-04T03:42:49.470Z,94.25
2023-01-04T03:43:49.437Z,94.25
2023-01-04T03:44:49.459Z,94.15
2023-01-04T03:45:49.417Z,94.15
2023-01-04T03:46:49.467Z,94.15
2023-01-04T03:47:49.380Z,94.15
2023-01-04T03:48:49.410Z,94.15
2023-01-04T03:49:49.411Z,94.15
2023-01-04T03:50:49.358Z,94.15
2023-01-04T03:51:49.347Z,94.15
2023-01-04T03:52:49.335Z,94.15
2023-01-04T03:53:49.318Z,94.25
2023-01-04T03:54:49.309Z,94.25
2023-01-04T03:55:49.308Z,94.25
2023-01-04T03:56:49.287Z,94.15
2023-01-04T03:57:49.259Z,94.15
2023-01-04T03:58:49.258Z,94.15
2023-01-04T03:59:49.249Z,94.10
2023-01-04T04:00:49.321Z,94.21
2023-01-04T04:01:49.362Z,94.21
2023-01-04T04:02:49.197Z,94.21
2023-01-04T04:03:49.277Z,94.21
2023-01-04T04:04:49.168Z,94.10
2023-01-04T04:05:49.178Z,94.21
2023-01-04T04:06:49.148Z,94.21
2023-01-04T04:07:49.147Z,94.10
2023-01-04T04:08:49.133Z,94.10
2023-01-04T04:09:49.120Z,94.10
2023-01-04T04:10:49.108Z,94.21
2023-01-04T04:11:49.087Z,94.10
2023-01-04T04:12:49.079Z,94.10
2023-01-04T04:13:49.064Z,94.06
2023-01-04T04:14:49.017Z,93.96
2023-01-04T04:15:49.073Z,93.96
2023-01-04T04:16:49.069Z,93.85
2023-01-04T04:17:49.007Z,93.85
2023-01-04T04:18:48.994Z,93.85
2023-01-04T04:19:48.992Z,93.85
2023-01-04T04:20:48.991Z,93.96
2023-01-04T04:21:48.999Z,94.06
2023-01-04T04:22:48.944Z,94.27
2023-01-04T04:23:48.927Z,94.37
2023-01-04T04:24:48.926Z,94.47
2023-01-04T04:25:48.897Z,94.37
2023-01-04T04:26:48.909Z,94.17
2023-01-04T04:27:48.890Z,94.17
2023-01-04T04:28:48.860Z,94.17
2023-01-04T04:29:48.872Z,94.27
2023-01-04T04:30:48.828Z,94.27
2023-01-04T04:31:48.988Z,94.37
2023-01-04T04:32:48.815Z,94.47
2023-01-04T04:33:48.797Z,94.37
2023-01-04T04:34:48.796Z,94.37
2023-01-04T04:35:48.785Z,94.37
2023-01-04T04:36:48.780Z,94.27
2023-01-04T04:37:48.746Z,94.27
2023-01-04T04:38:48.722Z,94.37
2023-01-04T04:39:48.737Z,94.37
2023-01-04T04:40:48.715Z,94.47
2023-01-04T04:41:48.779Z,94.47
2023-01-04T04:42:48.691Z,94.57
2023-01-04T04:43:48.668Z,94.68
2023-01-04T04:44:48.684Z,94.78
2023-01-04T04:45:48.692Z,94.89
2023-01-04T04:46:48.670Z,94.99
2023-01-04T04:47:48.615Z,95.14
2023-01-04T04:48:48.597Z,95.14
2023-01-04T04:49:48.608Z,95.34
2023-01-04T04:50:48.587Z,95.34
2023-01-04T04:51:48.567Z,95.45
2023-01-04T04:52:55.651Z,95.65
2023-01-04T04:53:49.535Z,95.76
2023-01-04T04:54:48.519Z,95.86
2023-01-04T04:55:48.528Z,96.06
2023-01-04T04:56:48.515Z,96.06
2023-01-04T04:57:48.487Z,96.06
2023-01-04T04:58:48.466Z,96.06
2023-01-04T04:59:48.475Z,96.17
2023-01-04T05:00:48.524Z,96.17
2023-01-04T05:01:48.689Z,96.37
2023-01-04T05:02:48.612Z,96.48
2023-01-04T05:03:48.418Z,96.48
2023-01-04T05:04:48.400Z,96.58
2023-01-04T05:05:48.432Z,96.69
2023-01-04T05:06:48.374Z,96.69
2023-01-04T05:07:48.355Z,96.79
2023-01-04T05:08:48.337Z,96.89
2023-01-04T05:09:48.341Z,96.99
2023-01-04T05:10:48.327Z,96.99
2023-01-04T05:11:48.306Z,97.09
2023-01-04T05:12:50.668Z,97.09
2023-01-04T05:13:49.279Z,97.20
2023-01-04T05:14:48.250Z,97.20
2023-01-04T05:15:48.270Z,97.09
2023-01-04T05:16:48.350Z,97.09
2023-01-04T05:17:48.228Z,96.99
2023-01-04T05:18:48.197Z,96.89
2023-01-04T05:19:48.207Z,96.79
2023-01-04T05:20:48.198Z,96.79
2023-01-04T05:21:48.178Z,96.69
2023-01-04T05:22:48.149Z,96.64
2023-01-04T05:23:48.145Z,96.64
2023-01-04T05:24:48.127Z,96.33
2023-01-04T05:25:48.127Z,96.23
2023-01-04T05:26:48.107Z,96.02
2023-01-04T05:27:48.096Z,95.81
2023-01-04T05:28:53.394Z,95.56
2023-01-04T05:29:49.088Z,95.36
2023-01-04T05:30:48.068Z,95.36
2023-01-04T05:31:48.090Z,95.25
2023-01-04T05:32:48.025Z,95.15
2023-01-04T05:33:48.021Z,95.15
2023-01-04T05:34:48.013Z,95.15
2023-01-04T05:35:48.007Z,95.05
2023-01-04T05:36:47.968Z,95.05
2023-01-04T05:37:47.976Z,95.05
2023-01-04T05:38:47.947Z,94.95
2023-01-04T05:39:47.945Z,94.95
2023-01-04T05:40:48.087Z,94.95
2023-01-04T05:41:47.920Z,94.95
2023-01-04T05:42:47.898Z,94.95
2023-01-04T05:43:47.890Z,95.05
2023-01-04T05:44:47.986Z,95.00
2023-01-04T05:45:47.937Z,94.80
2023-01-04T05:46:47.951Z,94.80
2023-01-04T05:47:47.838Z,94.80
2023-01-04T05:48:47.839Z,94.90
2023-01-04T05:49:47.819Z,94.90
2023-01-04T05:50:47.815Z,94.80
2023-01-04T05:51:47.788Z,94.80
2023-01-04T05:52:47.757Z,94.59
2023-01-04T05:53:47.784Z,94.59
2023-01-04T05:54:47.746Z,94.49
2023-01-04T05:55:47.734Z,94.49
2023-01-04T05:56:47.719Z,94.49
2023-01-04T05:57:47.710Z,94.49
2023-01-04T05:58:47.693Z,94.24
2023-01-04T05:59:47.687Z,94.13
2023-01-04T06:00:47.684Z,94.03
2023-01-04T06:01:47.796Z,93.83
2023-01-04T06:02:47.777Z,93.73
2023-01-04T06:03:47.794Z,93.62
2023-01-04T06:04:51.580Z,93.62
2023-01-04T06:05:48.606Z,93.83
2023-01-04T06:06:47.605Z,94.03
2023-01-04T06:07:47.578Z,94.13
2023-01-04T06:08:47.583Z,94.24
2023-01-04T06:09:47.562Z,94.34
2023-01-04T06:10:47.527Z,94.45
2023-01-04T06:11:47.554Z,94.45
2023-01-04T06:12:47.527Z,94.34
2023-01-04T06:13:47.507Z,94.34
2023-01-04T06:14:47.480Z,94.45
2023-01-04T06:15:47.515Z,94.55
2023-01-04T06:16:47.603Z,94.65
2023-01-04T06:17:47.450Z,94.65
2023-01-04T06:18:47.445Z,94.76
2023-01-04T06:19:47.437Z,94.76
2023-01-04T06:20:47.416Z,94.76
2023-01-04T06:21:47.432Z,94.85
2023-01-04T06:22:47.384Z,94.85
2023-01-04T06:23:47.412Z,94.85
2023-01-04T06:24:47.365Z,94.85
2023-01-04T06:25:47.347Z,94.85
2023-01-04T06:26:47.369Z,94.85
2023-01-04T06:27:47.324Z,94.96
2023-01-04T06:28:54.472Z,94.96
2023-01-04T06:29:47.307Z,94.96
2023-01-04T06:30:47.294Z,94.96
2023-01-04T06:31:47.321Z,95.06
2023-01-04T06:32:47.260Z,95.17
2023-01-04T06:33:47.254Z,95.17
2023-01-04T06:34:47.233Z,95.17
2023-01-04T06:35:47.222Z,95.17
2023-01-04T06:36:47.215Z,95.17
2023-01-04T06:37:47.202Z,95.17
2023-01-04T06:38:47.178Z,95.17
2023-01-04T06:39:47.170Z,95.17
2023-01-04T06:40:47.175Z,95.17
2023-01-04T06:41:47.160Z,95.17
2023-01-04T06:42:47.132Z,95.27
2023-01-04T06:43:47.113Z,95.27
2023-01-04T06:44:47.113Z,95.27
2023-01-04T06:45:47.163Z,95.17
2023-01-04T06:46:47.083Z,95.27
2023-01-04T06:47:47.069Z,95.37
2023-01-04T06:48:47.040Z,95.37
2023-01-04T06:49:47.039Z,95.48
2023-01-04T06:50:47.020Z,95.48
2023-01-04T06:51:47.003Z,95.48
2023-01-04T06:52:47.014Z,95.58
2023-01-04T06:53:46.980Z,95.58
2023-01-04T06:54:46.965Z,95.58
2023-01-04T06:55:46.962Z,95.58
2023-01-04T06:56:46.938Z,95.58
2023-01-04T06:57:46.953Z,95.68
2023-01-04T06:58:46.920Z,95.68
2023-01-04T06:59:46.919Z,95.58
2023-01-04T07:00:46.906Z,95.58
2023-01-04T07:01:47.021Z,95.68
2023-01-04T07:03:13.991Z,95.78
2023-01-04T07:03:47.850Z,95.78
2023-01-04T07:04:46.900Z,95.78
2023-01-04T07:05:46.821Z,95.78
2023-01-04T07:06:46.815Z,95.78
2023-01-04T07:07:46.822Z,95.89
2023-01-04T07:08:46.797Z,95.99
2023-01-04T07:09:46.770Z,95.99
2023-01-04T07:10:46.778Z,95.99
2023-01-04T07:11:46.749Z,95.99
2023-01-04T07:12:46.748Z,96.09
2023-01-04T07:13:46.719Z,95.99
2023-01-04T07:14:46.699Z,95.99
2023-01-04T07:15:46.761Z,95.99
2023-01-04T07:16:46.774Z,95.99
2023-01-04T07:17:46.691Z,95.99
2023-01-04T07:18:46.658Z,95.95
2023-01-04T07:19:46.656Z,95.99
2023-01-04T07:20:46.629Z,95.95
2023-01-04T07:21:46.618Z,95.95
2023-01-04T07:22:46.619Z,95.95
2023-01-04T07:23:46.589Z,95.95
2023-01-04T07:24:46.583Z,95.95
2023-01-04T07:25:46.567Z,95.95
2023-01-04T07:26:46.554Z,95.95
2023-01-04T07:27:46.563Z,96.05
2023-01-04T07:28:46.533Z,96.15
2023-01-04T07:29:46.519Z,96.15
2023-01-04T07:30:46.552Z,96.15
2023-01-04T07:31:46.490Z,96.05
2023-01-04T07:32:46.499Z,95.84
2023-01-04T07:33:46.468Z,95.84
2023-01-04T07:34:46.448Z,95.84
2023-01-04T07:35:46.439Z,95.84
2023-01-04T07:36:46.428Z,95.84
2023-01-04T07:37:47.910Z,95.74
2023-01-04T07:38:46.415Z,95.74
2023-01-04T07:39:46.417Z,95.43
2023-01-04T07:40:56.193Z,95.33
2023-01-04T07:41:47.357Z,95.23
2023-01-04T07:42:46.350Z,95.23
2023-01-04T07:43:46.349Z,95.23
2023-01-04T07:44:46.319Z,95.08
2023-01-04T07:45:46.344Z,95.08
2023-01-04T07:46:46.369Z,95.08
2023-01-04T07:47:46.296Z,95.08
2023-01-04T07:48:46.290Z,94.98
2023-01-04T07:49:46.276Z,95.08
2023-01-04T07:50:46.238Z,94.98
2023-01-04T07:51:46.251Z,94.77
2023-01-04T07:52:46.223Z,94.67
2023-01-04T07:53:46.228Z,94.46
2023-01-04T07:54:46.189Z,94.26
2023-01-04T07:55:46.206Z,94.15
2023-01-04T07:56:46.169Z,93.90
2023-01-04T07:57:46.168Z,93.70
2023-01-04T07:58:46.161Z,93.59
2023-01-04T07:59:46.142Z,93.49
2023-01-04T08:00:46.129Z,93.70
2023-01-04T08:01:46.221Z,93.70
2023-01-04T08:02:46.249Z,93.59
2023-01-04T08:03:46.118Z,93.59
2023-01-04T08:04:46.128Z,93.49
2023-01-04T08:05:46.061Z,93.29
2023-01-04T08:06:46.049Z,93.18
2023-01-04T08:07:46.064Z,93.08
2023-01-04T08:08:46.032Z,92.97
2023-01-04T08:09:46.012Z,92.87
2023-01-04T08:10:45.991Z,92.87
2023-01-04T08:11:45.989Z,92.77
2023-01-04T08:12:45.973Z,92.67
2023-01-04T08:13:45.980Z,92.57
2023-01-04T08:14:45.949Z,92.63
2023-01-04T08:15:46.020Z,92.67
2023-01-04T08:16:45.913Z,92.83
2023-01-04T08:17:45.903Z,92.52
2023-01-04T08:18:45.980Z,92.42
2023-01-04T08:19:45.871Z,92.32
2023-01-04T08:20:45.861Z,92.32
2023-01-04T08:21:45.845Z,92.52
2023-01-04T08:22:45.841Z,92.52
2023-01-04T08:23:45.914Z,92.73
2023-01-04T08:24:45.829Z,92.63
2023-01-04T08:25:45.791Z,92.73
2023-01-04T08:26:45.785Z,92.73
2023-01-04T08:27:45.770Z,92.73
2023-01-04T08:28:45.764Z,92.63
2023-01-04T08:29:45.761Z,92.52
2023-01-04T08:30:45.772Z,92.52
2023-01-04T08:31:45.817Z,92.11
2023-01-04T08:32:45.699Z,91.80
2023-01-04T08:33:45.690Z,92.93
2023-01-04T08:34:45.695Z,92.63
2023-01-04T08:35:45.666Z,92.17
2023-01-04T08:36:45.655Z,91.76
2023-01-04T08:37:45.623Z,91.45
2023-01-04T08:39:01.998Z,91.35
2023-01-04T08:39:49.199Z,91.35
2023-01-04T08:40:58.845Z,91.55
2023-01-04T08:41:57.832Z,91.55
2023-01-04T08:42:46.570Z,91.66
2023-01-04T08:43:45.550Z,91.66
2023-01-04T08:44:45.561Z,91.45
2023-01-04T08:45:45.530Z,91.55
2023-01-04T08:46:45.634Z,91.45
2023-01-04T08:47:45.500Z,91.35
2023-01-04T08:48:45.499Z,91.35
2023-01-04T08:49:45.491Z,91.25
2023-01-04T08:50:45.468Z,91.25
2023-01-04T08:51:45.454Z,91.25
2023-01-04T08:52:45.441Z,91.35
2023-01-04T08:53:45.421Z,91.45
2023-01-04T08:54:45.449Z,91.45
2023-01-04T08:55:45.392Z,91.55
2023-01-04T08:56:45.393Z,91.55
2023-01-04T08:57:45.370Z,91.55
2023-01-04T08:58:45.362Z,91.35
2023-01-04T08:59:45.359Z,91.35
2023-01-04T09:00:45.322Z,91.35
2023-01-04T09:01:45.460Z,91.35
2023-01-04T09:02:45.439Z,91.35
2023-01-04T09:03:45.282Z,91.35
2023-01-04T09:04:45.352Z,91.45
2023-01-04T09:05:45.278Z,91.45
2023-01-04T09:06:45.248Z,91.35
2023-01-04T09:07:45.233Z,91.35
2023-01-04T09:08:45.241Z,91.35
2023-01-04T09:09:45.219Z,91.76
2023-01-04T09:10:45.210Z,91.66
2023-01-04T09:11:45.180Z,91.86
2023-01-04T09:12:45.172Z,91.97
2023-01-04T09:13:45.150Z,92.38
2023-01-04T09:14:45.161Z,92.07
2023-01-04T09:15:45.167Z,91.76
2023-01-04T09:16:45.277Z,91.66
2023-01-04T09:18:05.067Z,91.45
2023-01-04T09:18:46.092Z,91.45
2023-01-04T09:19:45.093Z,91.45
2023-01-04T09:20:45.075Z,91.45
2023-01-04T09:21:45.086Z,91.55
2023-01-04T09:22:45.046Z,91.55
2023-01-04T09:23:45.020Z,91.45
2023-01-04T09:24:45.035Z,91.45
2023-01-04T09:25:45.002Z,91.35
2023-01-04T09:26:45.022Z,91.45
2023-01-04T09:27:44.962Z,91.45
2023-01-04T09:28:44.966Z,91.55
2023-01-04T09:29:44.962Z,91.66
2023-01-04T09:30:44.931Z,91.61
2023-01-04T09:31:45.015Z,91.55
2023-01-04T09:32:44.925Z,91.41
2023-01-04T09:34:45.908Z,91.51
2023-01-04T09:35:44.858Z,91.41
2023-01-04T09:36:44.850Z,91.41
2023-01-04T09:37:44.861Z,91.41
2023-01-04T09:38:44.830Z,91.51
2023-01-04T09:39:44.831Z,91.41
2023-01-04T09:40:44.803Z,91.31
2023-01-04T09:41:44.796Z,91.41
2023-01-04T09:42:44.770Z,91.41
2023-01-04T09:43:44.760Z,91.41
2023-01-04T09:45:45.743Z,91.82
2023-01-04T09:46:44.806Z,91.93
2023-01-04T09:47:44.703Z,91.82
2023-01-04T09:48:44.700Z,91.51
2023-01-04T09:49:44.701Z,91.41
2023-01-04T09:50:44.673Z,91.51
2023-01-04T09:51:44.653Z,91.31
2023-01-04T09:52:44.641Z,97.17
2023-01-04T09:53:44.630Z,98.72
2023-01-04T09:54:44.631Z,97.91
2023-01-04T09:55:44.612Z,90.89
2023-01-04T09:56:44.594Z,88.84
2023-01-04T09:57:44.571Z,87.82
2023-01-04T09:58:44.550Z,87.30
2023-01-04T09:59:44.562Z,87.30
2023-01-04T10:00:44.607Z,87.65
2023-01-04T10:01:44.721Z,87.85
2023-01-04T10:02:44.703Z,87.96
2023-01-04T10:03:44.489Z,88.41
2023-01-04T10:04:44.495Z,88.72
2023-01-04T10:05:44.463Z,88.92
2023-01-04T10:06:44.461Z,89.13
2023-01-04T10:07:44.444Z,89.33
2023-01-04T10:08:44.425Z,89.48
2023-01-04T10:09:44.432Z,89.48
2023-01-04T10:10:44.391Z,89.69
2023-01-04T10:11:44.381Z,89.78
2023-01-04T10:12:44.366Z,89.99
2023-01-04T10:13:44.372Z,90.09
2023-01-04T10:14:44.343Z,90.20
2023-01-04T10:15:44.351Z,89.89
2023-01-04T10:17:11.861Z,89.78
2023-01-04T10:18:52.011Z,89.89
2023-01-04T10:21:23.580Z,90.40
2023-01-04T10:21:45.330Z,90.30
2023-01-04T10:22:44.246Z,90.20
2023-01-04T10:23:44.221Z,89.89
2023-01-04T10:24:44.223Z,89.75
2023-01-04T10:25:44.211Z,89.64
2023-01-04T10:26:44.185Z,89.64
2023-01-04T10:27:44.175Z,89.95
2023-01-04T10:28:44.171Z,90.16
2023-01-04T10:29:44.142Z,90.26
2023-01-04T10:30:44.154Z,89.84
2023-01-04T10:31:44.150Z,89.33
2023-01-04T10:32:44.108Z,89.19
2023-01-04T10:33:44.091Z,89.19
2023-01-04T10:34:44.081Z,88.98
2023-01-04T10:35:44.071Z,89.19
2023-01-04T10:36:44.041Z,89.29
2023-01-04T10:37:44.036Z,89.60
2023-01-04T10:38:44.021Z,89.09
2023-01-04T10:39:44.086Z,88.88
2023-01-04T10:40:44.012Z,88.98
2023-01-04T10:41:43.992Z,89.09
2023-01-04T10:42:43.961Z,88.74
2023-01-04T10:44:11.623Z,88.64
2023-01-04T10:44:44.941Z,88.33
2023-01-04T10:45:43.956Z,88.43
2023-01-04T10:46:43.973Z,88.33
2023-01-04T10:47:43.907Z,88.43
2023-01-04T10:48:43.890Z,88.33
2023-01-04T10:49:43.873Z,88.12
2023-01-04T10:50:43.871Z,88.12
2023-01-04T10:51:43.854Z,88.02
2023-01-04T10:52:43.845Z,88.02
2023-01-04T10:53:43.814Z,88.18
2023-01-04T10:54:43.918Z,87.67
2023-01-04T10:56:23.130Z,87.67
2023-01-04T10:56:44.782Z,87.77
2023-01-04T10:57:43.777Z,87.67
2023-01-04T10:58:43.752Z,87.98
2023-01-04T10:59:43.744Z,87.98
2023-01-04T11:00:43.819Z,87.57
2023-01-04T11:01:43.955Z,87.67
2023-01-04T11:02:43.927Z,87.47
2023-01-04T11:03:43.714Z,87.47
2023-01-04T11:04:43.679Z,87.98
2023-01-04T11:05:43.674Z,87.88
2023-01-04T11:06:43.648Z,87.57
2023-01-04T11:07:43.636Z,87.57
2023-01-04T11:08:43.623Z,87.77
2023-01-04T11:09:43.608Z,87.88
2023-01-04T11:10:43.613Z,87.57
2023-01-04T11:11:43.581Z,87.16
2023-01-04T11:12:43.567Z,87.26
2023-01-04T11:13:43.556Z,87.26
2023-01-04T11:14:43.545Z,87.37
2023-01-04T11:15:43.523Z,87.16
2023-01-04T11:16:43.567Z,87.26
2023-01-04T11:17:43.493Z,87.26
2023-01-04T11:18:43.487Z,87.37
2023-01-04T11:19:43.461Z,87.06
2023-01-04T11:20:43.498Z,87.06
2023-01-04T11:21:43.463Z,87.06
2023-01-04T11:22:43.465Z,87.06
2023-01-04T11:23:43.424Z,86.65
2023-01-04T11:24:54.478Z,86.51
2023-01-04T11:25:45.471Z,86.30
2023-01-04T11:26:43.392Z,86.40
2023-01-04T11:27:43.360Z,86.61
2023-01-04T11:28:43.354Z,86.40
2023-01-04T11:29:43.335Z,86.51
2023-01-04T11:30:43.321Z,86.10
2023-01-04T11:31:43.398Z,86.40
2023-01-04T11:32:43.343Z,86.10
2023-01-04T11:33:43.286Z,85.99
2023-01-04T11:34:43.275Z,86.20
2023-01-04T11:35:43.393Z,86.51
2023-01-04T11:36:43.262Z,86.51
2023-01-04T11:37:43.225Z,86.51
2023-01-04T11:38:43.212Z,86.61
2023-01-04T11:39:43.200Z,86.40
2023-01-04T11:40:43.199Z,86.61
2023-01-04T11:41:43.203Z,86.20
2023-01-04T11:42:43.164Z,86.40
2023-01-04T11:43:43.223Z,86.40
2023-01-04T11:44:43.144Z,86.40
2023-01-04T11:45:43.154Z,86.40
2023-01-04T11:46:43.151Z,86.40
2023-01-04T11:47:43.103Z,86.71
2023-01-04T11:48:43.086Z,86.71
2023-01-04T11:49:43.078Z,86.91
2023-01-04T11:50:43.063Z,87.02
2023-01-04T11:51:43.049Z,86.51
2023-01-04T11:52:43.157Z,87.32
2023-01-04T11:53:43.027Z,86.91
2023-01-04T11:54:43.010Z,86.91
2023-01-04T11:55:42.992Z,86.91
2023-01-04T11:56:43.005Z,87.12
2023-01-04T11:57:42.965Z,87.22
2023-01-04T11:58:42.957Z,87.53
2023-01-04T11:59:42.944Z,87.94
2023-01-04T12:00:42.939Z,88.35
2023-01-04T12:01:42.983Z,89.17
2023-01-04T12:03:00.964Z,89.37
2023-01-04T12:03:43.890Z,89.89
2023-01-04T12:04:42.875Z,89.98
2023-01-04T12:05:42.865Z,90.19
2023-01-04T12:06:42.870Z,90.44
2023-01-04T12:07:42.836Z,90.54
2023-01-04T12:08:42.839Z,91.16
2023-01-04T12:09:42.804Z,91.46
2023-01-04T12:10:42.794Z,91.67
2023-01-04T12:11:42.795Z,91.97
2023-01-04T12:12:42.769Z,91.67
2023-01-04T12:13:42.755Z,91.97
2023-01-04T12:14:42.747Z,92.18
2023-01-04T12:15:42.723Z,92.28
2023-01-04T12:16:42.725Z,92.28
2023-01-04T12:17:43.484Z,92.28
2023-01-04T12:18:42.688Z,92.38
2023-01-04T12:19:42.689Z,92.28
2023-01-04T12:20:42.657Z,92.38
2023-01-04T12:21:42.665Z,92.49
2023-01-04T12:22:42.635Z,92.49
2023-01-04T12:23:42.605Z,92.08
2023-01-04T12:24:42.593Z,92.08
2023-01-04T12:25:42.605Z,92.28
2023-01-04T12:26:42.598Z,92.18
2023-01-04T12:27:42.556Z,91.97
2023-01-04T12:28:42.575Z,92.08
2023-01-04T12:29:42.550Z,91.97
2023-01-04T12:30:42.524Z,91.97
2023-01-04T12:31:42.525Z,91.77
2023-01-04T12:32:42.494Z,91.67
2023-01-04T12:33:42.484Z,91.46
2023-01-04T12:34:42.505Z,91.16
2023-01-04T12:35:42.464Z,90.84
2023-01-04T12:36:42.480Z,90.39
2023-01-04T12:37:42.436Z,90.81
2023-01-04T12:38:42.415Z,90.30
2023-01-04T12:39:42.407Z,90.39
2023-01-04T12:40:42.387Z,91.27
2023-01-04T12:41:42.399Z,90.45
2023-01-04T12:42:42.356Z,90.39
2023-01-04T12:43:46.867Z,90.09
2023-01-04T12:44:42.336Z,89.98
2023-01-04T12:45:42.364Z,90.09
2023-01-04T12:46:42.367Z,89.98
2023-01-04T12:47:42.313Z,89.89
2023-01-04T12:48:42.286Z,90.09
2023-01-04T12:49:42.276Z,89.98
2023-01-04T12:50:47.871Z,90.09
2023-01-04T12:51:58.272Z,90.19
2023-01-04T12:53:10.091Z,89.78
2023-01-04T12:53:43.255Z,89.58
2023-01-04T12:54:42.206Z,89.58
2023-01-04T12:55:44.003Z,89.33
2023-01-04T12:56:42.264Z,89.23